Terminal Aerodrome Forecast
Issued by NWS

Home | Current Version | Previous Version | Text Only | Print | Product List | Glossary On
Versions: 1 2 3 4 5 6 7 8 9 10 11 12 13 14 15 16 17 18 19 20 21
000
FTUS43 KLSX 070643 AAC
TAFUIN
TAF AMD
KUIN 070643Z 0707/0806 36008KT 3SM -RA BR BKN005
     FM071500 01014KT P6SM SCT005 OVC010
     FM071800 02007KT P6SM SCT015 BKN050
     FM080000 05005KT P6SM BKN250=

USA.gov is the U.S. government's official web portal to all federal, state and local government web resources and services.